Sigfox identifier Datetime Temperature Humidity SNR
003B7557 2018-10-09 08:51:07 20.3 39 19
003B7557 2018-10-09 07:45:12 20.3 39 19
003B7557 2018-10-09 06:39:19 20.3 39 20.8
003B7557 2018-10-09 05:33:27 20.4 38 20.6
003B7557 2018-10-09 01:09:39 20.3 38 19.3
003B7557 2018-10-09 00:03:43 20.3 38 19.1
003B7557 2018-10-08 22:57:46 20.3 38 19.1
003B7557 2018-10-08 21:51:49 20.4 38 19
003B7557 2018-10-08 20:45:50 20.2 38 19
003B7557 2018-10-08 19:39:54 20.2 38 18.6
003B7557 2018-10-08 18:34:00 20.2 37 18.1
003B7557 2018-10-08 17:28:02 20.2 37 17.6
003B7557 2018-10-08 16:22:09 20.2 37 17.3
003B7557 2018-10-08 15:16:17 20.1 37 17.3
003B7557 2018-10-08 14:10:26 20.2 37 17.1
003B7557 2018-10-08 11:58:33 20.4 37 16.8
003B7557 2018-10-08 10:52:43 20.5 38 16.8
003B7557 2018-10-08 09:46:54 20.4 38 16.7
003B7557 2018-10-08 08:40:59 20.4 38 16.7
003B7557 2018-10-08 06:29:22 20.5 38 16.7
003B7557 2018-10-08 03:11:36 20.6 39 16.7
003B7557 2018-10-07 21:42:00 20.6 39 17
003B7557 2018-10-07 19:30:09 20.6 39 17.3
003B7557 2018-10-07 18:24:14 20.6 39 17.3
003B7557 2018-10-07 16:12:19 20.6 39 11.5
003B7557 2018-10-07 12:54:38 20.7 39 11.9
003B7557 2018-10-07 04:06:54 20.8 40 12.4
003B7557 2018-10-07 03:00:53 20.8 40 12.4
003B7557 2018-10-06 21:30:55 21 40 12.4
003B7557 2018-10-06 20:24:56 21 40 12.5
003B7557 2018-10-06 19:19:03 21 40 12.7
003B7557 2018-10-06 18:13:06 21 40 13.1
003B7557 2018-10-06 17:07:07 21 40 13.4
003B7557 2018-10-06 13:49:17 21 40 13.5
003B7557 2018-10-06 10:31:26 21 40 13.6
003B7557 2018-10-06 08:19:26 21 41 13.7
003B7557 2018-10-06 07:13:26 21 41 13.8
003B7557 2018-10-06 05:01:41 21 41 13.9
003B7557 2018-10-06 03:55:46 21.1 41 14
003B7557 2018-10-06 01:44:02 21.2 41 14.9
003B7557 2018-10-05 21:20:07 21.2 41 15
003B7557 2018-10-05 20:14:03 21.2 42 15
003B7557 2018-10-05 19:08:03 21.3 42 15.2
003B7557 2018-10-05 15:50:19 21.2 43 15.4
003B7557 2018-10-05 14:44:27 21 43 15.5
003B7557 2018-10-05 13:38:34 20.6 41 15.7
003B7557 2018-10-05 12:32:41 20.6 39 15.4
003B7557 2018-10-05 11:26:47 20.6 38 14.9
003B7557 2018-10-05 10:20:52 20.4 36 15
003B7557 2018-10-05 09:15:00 20.4 34 15.2
003B7557 2018-10-05 08:09:05 20.4 32 15.1
003B7557 2018-10-05 07:03:09 20.4 32 14.9
003B7557 2018-10-05 05:57:10 20.4 32 15.2
003B7557 2018-10-05 04:51:08 20.4 32 15.4
003B7557 2018-10-05 03:45:12 20.6 32 15.7
003B7557 2018-10-05 02:39:15 20.6 32 15.8
003B7557 2018-10-05 01:33:20 20.6 32 15.6
003B7557 2018-10-05 00:27:26 20.6 32 15.6
003B7557 2018-10-04 23:21:30 20.6 32 15.7
003B7557 2018-10-04 22:15:36 20.6 32 16.1
003B7557 2018-10-04 21:09:36 20.6 31 16.7
003B7557 2018-10-04 20:03:43 20.6 31 17.2
003B7557 2018-10-04 18:57:43 20.6 31 17.9
003B7557 2018-10-04 17:51:47 20.8 31 19
003B7557 2018-10-04 16:45:49 21 33 10.5
003B7557 2018-10-04 15:39:50 20.5 41 0